Time;durP1;ratioP1;P1;durP2;ratioP2;P2;SDS_P1;SDS_P2;PMS_P1;PMS_P2;Temp;Humidity;BMP_temperature;BMP_pressure;BME280_temperature;BME280_humidity;BME280_pressure;Samples;Min_cycle;Max_cycle;Signal;HPM_P1;HPM_P2
2023/01/13 00:01:37;;;;;;;10.80;10.40;;;11.60;99.90;;;;;;5040442;28;20212;-47
2023/01/13 00:04:03;;;;;;;10.70;10.20;;;11.50;99.90;;;;;;5040017;28;20236;-45
2023/01/13 00:06:29;;;;;;;10.00;9.60;;;11.70;99.90;;;;;;5040067;28;20839;-49
2023/01/13 00:08:55;;;;;;;10.37;9.97;;;11.60;99.90;;;;;;5040804;28;20522;-44
2023/01/13 00:11:21;;;;;;;10.33;9.93;;;11.60;99.90;;;;;;5040501;28;20285;-44
2023/01/13 00:13:47;;;;;;;10.20;9.80;;;11.60;99.90;;;;;;5040567;28;20778;-45
2023/01/13 00:16:15;;;;;;;10.30;9.90;;;11.60;99.90;;;;;;5041282;28;20434;-45
2023/01/13 00:18:41;;;;;;;10.20;9.80;;;11.60;99.90;;;;;;5040505;28;20567;-48
2023/01/13 00:21:13;;;;;;;10.40;10.00;;;11.50;99.90;;;;;;5040765;28;20548;-46
2023/01/13 00:23:40;;;;;;;10.10;9.70;;;11.50;99.90;;;;;;5039580;28;20470;-46
2023/01/13 00:26:12;;;;;;;10.20;9.80;;;11.50;99.90;;;;;;5040317;28;20437;-43
2023/01/13 00:28:37;;;;;;;9.67;9.37;;;11.60;99.90;;;;;;5039353;28;20430;-45
2023/01/13 00:31:17;;;;;;;10.10;9.70;;;11.50;99.90;;;;;;5040284;28;20441;-47
2023/01/13 00:33:43;;;;;;;10.17;9.77;;;11.40;99.90;;;;;;5039197;28;20187;-43
2023/01/13 00:36:12;;;;;;;10.20;9.80;;;11.40;99.90;;;;;;5040891;28;20911;-46
2023/01/13 00:38:39;;;;;;;10.30;9.90;;;11.40;99.90;;;;;;5039973;28;20188;-46
2023/01/13 00:41:17;;;;;;;10.47;9.80;;;11.40;99.90;;;;;;5040111;28;20960;-45
2023/01/13 00:43:43;;;;;;;10.40;10.00;;;11.40;99.90;;;;;;5039327;28;21315;-47
2023/01/13 00:46:10;;;;;;;10.20;9.80;;;11.30;99.90;;;;;;5039777;28;20434;-50
2023/01/13 00:48:36;;;;;;;10.10;9.70;;;11.30;99.90;;;;;;5040133;28;20261;-46
2023/01/13 00:51:08;;;;;;;10.10;9.70;;;11.10;99.90;;;;;;5022336;28;20601;-47
2023/01/13 00:53:39;;;;;;;10.30;9.90;;;11.00;99.90;;;;;;5038934;28;21010;-43
2023/01/13 00:56:13;;;;;;;10.20;9.80;;;10.90;99.90;;;;;;5040070;28;20961;-47
2023/01/13 00:58:38;;;;;;;10.40;10.00;;;10.80;99.90;;;;;;5039837;28;20444;-45
2023/01/13 01:01:10;;;;;;;10.33;9.93;;;10.60;99.90;;;;;;5037519;28;20465;-45
2023/01/13 01:03:36;;;;;;;10.50;10.10;;;10.60;99.90;;;;;;5021191;28;20318;-47
2023/01/13 01:06:22;;;;;;;10.30;9.80;;;10.60;99.90;;;;;;5039853;28;20436;-44
2023/01/13 01:08:48;;;;;;;10.10;9.70;;;10.60;99.90;;;;;;5038941;28;20431;-46
2023/01/13 01:11:19;;;;;;;10.00;9.60;;;10.60;99.90;;;;;;5039441;28;20425;-50
2023/01/13 01:13:45;;;;;;;10.23;9.83;;;10.60;99.90;;;;;;5037993;28;20938;-50
2023/01/13 01:16:14;;;;;;;10.10;9.70;;;10.60;99.90;;;;;;5039957;28;20460;-48
2023/01/13 01:18:42;;;;;;;9.90;9.50;;;10.60;99.90;;;;;;5039044;28;20447;-47
2023/01/13 01:21:09;;;;;;;10.17;9.77;;;10.70;99.90;;;;;;5039487;28;20490;-49
2023/01/13 01:23:36;;;;;;;10.10;9.70;;;10.70;99.90;;;;;;5038484;28;20460;-46
2023/01/13 01:26:01;;;;;;;10.20;9.80;;;10.70;99.90;;;;;;5039430;28;20446;-46
2023/01/13 01:28:27;;;;;;;10.33;9.83;;;10.80;99.90;;;;;;5039951;28;20525;-46
2023/01/13 01:30:57;;;;;;;10.33;9.80;;;10.70;99.90;;;;;;5038697;28;20189;-47
2023/01/13 01:33:23;;;;;;;10.17;9.77;;;10.80;99.90;;;;;;5039022;28;20440;-47
2023/01/13 01:35:48;;;;;;;10.00;9.60;;;10.70;99.90;;;;;;5039116;28;20511;-49
2023/01/13 01:38:14;;;;;;;10.40;10.00;;;10.70;99.90;;;;;;5021477;28;20452;-50
2023/01/13 01:40:40;;;;;;;10.20;9.77;;;10.70;99.90;;;;;;5038298;28;20390;-47
2023/01/13 01:46:03;;;;;;;10.20;9.80;;;10.70;99.90;;;;;;5039124;28;20662;-49
2023/01/13 01:48:36;;;;;;;10.27;9.87;;;10.70;99.90;;;;;;5038989;28;20942;-45
2023/01/13 01:51:03;;;;;;;10.30;9.90;;;10.60;99.90;;;;;;5038822;28;20483;-52
2023/01/13 01:53:30;;;;;;;10.10;9.70;;;10.70;99.90;;;;;;5039808;28;21101;-47
2023/01/13 01:55:58;;;;;;;10.27;9.87;;;10.70;99.90;;;;;;5040066;28;20431;-44
2023/01/13 01:58:33;;;;;;;10.13;9.73;;;10.60;99.90;;;;;;5037880;28;20560;-47
2023/01/13 02:00:59;;;;;;;9.87;9.47;;;10.70;99.90;;;;;;5039331;28;20443;-48
2023/01/13 02:03:25;;;;;;;10.43;9.77;;;10.70;99.90;;;;;;5039414;28;21239;-47
2023/01/13 02:05:52;;;;;;;10.30;9.90;;;10.60;99.90;;;;;;5039195;28;20426;-44
2023/01/13 02:08:19;;;;;;;10.43;10.03;;;10.60;99.90;;;;;;5039377;28;20428;-48
2023/01/13 02:10:49;;;;;;;10.17;9.77;;;10.80;99.90;;;;;;5039997;28;20783;-46
2023/01/13 02:13:15;;;;;;;10.10;9.70;;;10.90;99.90;;;;;;5039283;28;20435;-47
2023/01/13 02:15:59;;;;;;;10.30;9.90;;;10.90;99.90;;;;;;5039650;28;20431;-46
2023/01/13 02:18:32;;;;;;;10.13;9.73;;;11.00;99.90;;;;;;5036972;28;20197;-51
2023/01/13 02:21:12;;;;;;;10.00;9.60;;;11.00;99.90;;;;;;5039318;28;20437;-48
2023/01/13 02:26:54;;;;;;;10.40;10.00;;;11.20;99.90;;;;;;5042842;28;20486;-47
2023/01/13 02:32:37;;;;;;;10.10;9.70;;;11.30;99.90;;;;;;5041963;28;20478;-49
2023/01/13 02:35:26;;;;;;;10.50;10.10;;;11.30;99.90;;;;;;5042752;28;20435;-48
2023/01/13 02:37:53;;;;;;;10.20;9.80;;;11.30;99.90;;;;;;5040804;28;20916;-50
2023/01/13 02:40:43;;;;;;;10.30;9.90;;;11.30;99.90;;;;;;5024360;28;20449;-51
2023/01/13 02:46:30;;;;;;;10.20;9.80;;;11.40;99.90;;;;;;5041853;28;20499;-44
2023/01/13 02:49:00;;;;;;;10.00;9.60;;;11.40;99.90;;;;;;5041319;28;20437;-53
2023/01/13 02:51:28;;;;;;;10.80;10.00;;;11.40;99.90;;;;;;5042491;28;20515;-47
2023/01/13 02:54:00;;;;;;;10.50;9.90;;;11.40;99.90;;;;;;5040838;28;20520;-48
2023/01/13 02:56:26;;;;;;;10.20;9.70;;;11.40;99.90;;;;;;5042200;28;20435;-48
2023/01/13 02:58:54;;;;;;;10.60;10.20;;;11.40;99.90;;;;;;5040860;28;20439;-45
2023/01/13 03:01:21;;;;;;;10.20;9.80;;;11.40;99.90;;;;;;5041109;28;20921;-45
2023/01/13 03:03:48;;;;;;;10.17;9.67;;;11.50;99.90;;;;;;5022258;28;20471;-50
2023/01/13 03:06:54;;;;;;;10.47;10.07;;;11.50;99.90;;;;;;5041771;28;20429;-45
2023/01/13 03:09:36;;;;;;;10.10;9.70;;;11.50;99.90;;;;;;5041383;28;20443;-48
2023/01/13 03:12:19;;;;;;;9.43;9.13;;;11.50;99.90;;;;;;5039915;28;20435;-45
2023/01/13 03:14:55;;;;;;;9.83;9.43;;;11.50;99.90;;;;;;5040870;28;20469;-45
2023/01/13 03:17:31;;;;;;;10.20;9.80;;;11.50;99.90;;;;;;5040818;28;20959;-49
2023/01/13 03:20:04;;;;;;;10.20;9.80;;;11.60;99.90;;;;;;5040913;28;20445;-46
2023/01/13 03:22:35;;;;;;;9.90;9.50;;;11.50;99.90;;;;;;5040697;28;20511;-45
2023/01/13 03:25:19;;;;;;;10.00;9.60;;;11.50;99.90;;;;;;5041333;28;21003;-44
2023/01/13 03:28:05;;;;;;;10.00;9.60;;;11.50;99.90;;;;;;5041020;28;21291;-47
2023/01/13 03:30:44;;;;;;;9.83;9.43;;;11.50;99.90;;;;;;5040708;28;20930;-50
2023/01/13 03:33:20;;;;;;;9.77;9.37;;;11.70;99.90;;;;;;5041591;28;20491;-46
2023/01/13 03:35:51;;;;;;;9.87;9.50;;;11.70;99.90;;;;;;5040393;28;20938;-44
2023/01/13 03:38:34;;;;;;;10.57;10.10;;;11.70;99.90;;;;;;5041375;28;20476;-46
2023/01/13 03:41:08;;;;;;;9.70;9.30;;;11.60;99.90;;;;;;5040583;28;20477;-50
2023/01/13 03:46:51;;;;;;;10.00;9.60;;;11.70;99.90;;;;;;5041002;28;20437;-44
2023/01/13 03:49:21;;;;;;;9.53;9.23;;;11.70;99.90;;;;;;5026357;28;20442;-45
2023/01/13 03:51:54;;;;;;;9.90;9.50;;;11.80;99.90;;;;;;5041174;28;20488;-43
2023/01/13 03:54:24;;;;;;;9.90;9.50;;;11.70;99.90;;;;;;5040656;28;20439;-47
2023/01/13 03:57:05;;;;;;;10.00;9.60;;;11.80;99.90;;;;;;5041272;28;20430;-48
2023/01/13 03:59:37;;;;;;;9.63;9.33;;;11.90;99.90;;;;;;5039120;28;20477;-46
2023/01/13 04:02:18;;;;;;;10.07;9.67;;;11.80;99.90;;;;;;5040340;28;20490;-49
2023/01/13 04:05:02;;;;;;;10.03;9.63;;;11.90;99.90;;;;;;5040041;28;20586;-45
2023/01/13 04:07:39;;;;;;;9.00;8.70;;;11.80;99.90;;;;;;5040250;28;20473;-45
2023/01/13 04:10:09;;;;;;;9.87;9.47;;;11.80;99.90;;;;;;5040391;28;20439;-45
2023/01/13 04:13:00;;;;;;;9.90;9.57;;;11.80;99.90;;;;;;5041231;28;20427;-47
2023/01/13 04:15:28;;;;;;;10.20;9.80;;;11.80;99.90;;;;;;5040984;28;21391;-44
2023/01/13 04:18:00;;;;;;;10.00;9.60;;;11.80;99.90;;;;;;5040609;28;20474;-46
2023/01/13 04:20:25;;;;;;;9.80;9.50;;;11.80;99.90;;;;;;5036265;28;20462;-46
2023/01/13 04:22:51;;;;;;;9.47;9.13;;;11.80;99.90;;;;;;5040653;28;20435;-45
2023/01/13 04:25:17;;;;;;;9.40;9.10;;;11.80;99.90;;;;;;5040474;28;20189;-47
2023/01/13 04:27:43;;;;;;;9.87;9.50;;;11.80;99.90;;;;;;5039030;28;20273;-46
2023/01/13 04:30:09;;;;;;;10.00;9.60;;;11.80;99.90;;;;;;5039277;28;20597;-48
2023/01/13 04:32:35;;;;;;;9.30;9.00;;;11.80;99.90;;;;;;5039830;28;20913;-51
2023/01/13 04:35:01;;;;;;;9.50;9.10;;;11.80;99.90;;;;;;5038453;28;20457;-49
2023/01/13 04:37:26;;;;;;;9.47;9.17;;;11.80;99.90;;;;;;5040165;28;20201;-50
2023/01/13 04:39:52;;;;;;;9.77;9.37;;;11.80;99.90;;;;;;5039429;28;21080;-48
2023/01/13 04:42:17;;;;;;;9.33;9.03;;;11.80;99.90;;;;;;5039079;28;20291;-47
2023/01/13 04:44:43;;;;;;;9.80;9.40;;;11.80;99.90;;;;;;5039494;28;20230;-49
2023/01/13 04:47:08;;;;;;;9.77;9.37;;;11.70;99.90;;;;;;5037834;28;20215;-47
2023/01/13 04:49:34;;;;;;;9.80;9.30;;;11.70;99.90;;;;;;5040139;28;20184;-43
2023/01/13 04:52:02;;;;;;;9.57;9.27;;;11.70;99.90;;;;;;5038490;28;20570;-45
2023/01/13 04:54:28;;;;;;;9.53;9.13;;;11.70;99.90;;;;;;5038902;28;20192;-44
2023/01/13 04:56:53;;;;;;;9.40;9.00;;;11.70;99.90;;;;;;5038732;28;20454;-49
2023/01/13 04:59:19;;;;;;;10.00;9.60;;;11.80;99.90;;;;;;5038012;28;20194;-45
2023/01/13 05:01:44;;;;;;;9.20;8.90;;;11.70;99.90;;;;;;5038946;28;20597;-43
2023/01/13 05:04:10;;;;;;;9.70;9.40;;;11.70;99.90;;;;;;5039065;28;20207;-47
2023/01/13 05:06:36;;;;;;;9.50;9.20;;;11.80;99.90;;;;;;5039583;28;20307;-46
2023/01/13 05:09:01;;;;;;;8.60;8.30;;;11.70;99.90;;;;;;5039175;28;20197;-49
2023/01/13 05:17:04;;;;;;;12.00;11.40;;;11.70;99.90;;;;;;5039473;28;20431;-48
2023/01/13 05:19:33;;;;;;;9.80;9.40;;;11.60;99.90;;;;;;5038582;28;20487;-46
2023/01/13 05:27:29;;;;;;;8.93;8.63;;;11.50;99.90;;;;;;5039123;28;20464;-46
2023/01/13 05:29:55;;;;;;;9.87;9.47;;;11.50;99.90;;;;;;5039376;28;20451;-45
2023/01/13 05:32:21;;;;;;;11.07;10.57;;;11.50;99.90;;;;;;5038192;28;20432;-46
2023/01/13 05:34:47;;;;;;;9.70;9.30;;;11.50;99.90;;;;;;5040472;28;20496;-46
2023/01/13 05:37:12;;;;;;;10.10;9.60;;;11.50;99.90;;;;;;5039283;28;21002;-49
2023/01/13 05:45:07;;;;;;;8.60;8.30;;;11.30;99.90;;;;;;5038832;28;20483;-50
2023/01/13 05:47:33;;;;;;;12.60;11.80;;;11.30;99.90;;;;;;5038262;28;20951;-49
2023/01/13 05:49:59;;;;;;;14.13;13.23;;;11.30;99.90;;;;;;5039933;28;20467;-46
2023/01/13 05:52:24;;;;;;;19.07;17.40;;;11.30;99.90;;;;;;5022009;28;20216;-50
2023/01/13 05:54:50;;;;;;;14.73;13.27;;;11.30;99.90;;;;;;5040194;28;20646;-45
2023/01/13 05:57:16;;;;;;;12.60;11.80;;;11.30;99.90;;;;;;5039937;28;20195;-46
2023/01/13 05:59:41;;;;;;;10.80;10.30;;;11.20;99.90;;;;;;5044190;28;20210;-47
2023/01/13 06:02:07;;;;;;;10.87;10.27;;;11.20;99.90;;;;;;5043869;28;21341;-47
2023/01/13 06:04:33;;;;;;;11.67;11.07;;;11.20;99.90;;;;;;5043937;28;20264;-47
2023/01/13 06:06:58;;;;;;;12.70;11.80;;;11.20;99.90;;;;;;5043781;28;20434;-47
2023/01/13 06:09:24;;;;;;;13.00;12.10;;;11.10;99.90;;;;;;5043741;28;20920;-48
2023/01/13 06:11:50;;;;;;;11.80;11.10;;;11.10;99.90;;;;;;5043805;28;20218;-47
2023/01/13 06:14:15;;;;;;;11.27;10.67;;;11.10;99.90;;;;;;5043636;28;20207;-48
2023/01/13 06:16:41;;;;;;;11.70;11.00;;;11.10;99.90;;;;;;5043627;28;20188;-48
2023/01/13 06:19:10;;;;;;;10.80;10.20;;;11.10;99.90;;;;;;5025147;28;20182;-46
2023/01/13 06:21:36;;;;;;;43.83;34.87;;;11.10;99.90;;;;;;5043084;28;20188;-46
2023/01/13 06:24:02;;;;;;;22.00;19.90;;;11.10;99.90;;;;;;5043593;28;20513;-52
2023/01/13 06:26:30;;;;;;;17.70;15.83;;;11.10;99.90;;;;;;5043956;28;20209;-45
2023/01/13 06:28:56;;;;;;;22.43;20.03;;;11.10;99.90;;;;;;5043170;28;20557;-48
2023/01/13 06:31:22;;;;;;;11.33;10.73;;;11.10;99.90;;;;;;5025387;28;20436;-45
2023/01/13 06:33:52;;;;;;;15.60;14.20;;;11.10;99.90;;;;;;5043362;28;20293;-47
2023/01/13 06:36:34;;;;;;;10.07;9.57;;;11.00;99.90;;;;;;5043501;28;20952;-47
2023/01/13 06:39:02;;;;;;;11.87;11.20;;;11.10;99.90;;;;;;5043468;28;20434;-51
2023/01/13 06:44:15;;;;;;;12.00;11.20;;;11.10;99.90;;;;;;5043273;28;20842;-47
2023/01/13 06:46:41;;;;;;;10.73;10.23;;;11.10;99.90;;;;;;5024916;28;21520;-51
2023/01/13 06:49:07;;;;;;;10.70;10.20;;;11.10;99.90;;;;;;5043097;28;20416;-45
2023/01/13 06:51:33;;;;;;;8.57;8.27;;;11.20;99.90;;;;;;5042774;28;20373;-45
2023/01/13 06:53:58;;;;;;;9.50;8.87;;;11.20;99.90;;;;;;5042935;28;21037;-48
2023/01/13 06:56:24;;;;;;;9.70;9.30;;;11.30;99.90;;;;;;5043299;28;20572;-47
2023/01/13 06:58:49;;;;;;;11.67;11.07;;;11.30;99.90;;;;;;5042698;28;20183;-47
2023/01/13 07:01:15;;;;;;;9.90;9.40;;;11.30;99.90;;;;;;5042653;28;20244;-51
2023/01/13 07:03:41;;;;;;;10.73;10.23;;;11.30;99.90;;;;;;5042535;28;20203;-50
2023/01/13 07:06:07;;;;;;;9.73;9.33;;;11.30;99.90;;;;;;5042714;28;20192;-47
2023/01/13 07:08:32;;;;;;;11.30;10.70;;;11.30;99.90;;;;;;5042249;28;20184;-50
2023/01/13 07:11:00;;;;;;;9.80;9.40;;;11.30;99.90;;;;;;5041506;28;20425;-44
2023/01/13 07:16:10;;;;;;;10.50;10.10;;;11.40;99.90;;;;;;5042600;28;20420;-45
2023/01/13 07:18:37;;;;;;;10.60;10.10;;;11.40;99.90;;;;;;5042364;28;20428;-48
2023/01/13 07:21:05;;;;;;;10.10;9.70;;;11.50;99.90;;;;;;5042541;28;20273;-46
2023/01/13 07:23:41;;;;;;;10.30;9.90;;;11.50;99.90;;;;;;5042334;28;20596;-49
2023/01/13 07:26:08;;;;;;;10.50;10.10;;;11.50;99.90;;;;;;5042170;28;20430;-45
2023/01/13 07:28:33;;;;;;;9.37;9.07;;;11.60;99.90;;;;;;5041893;28;20453;-45
2023/01/13 07:30:59;;;;;;;9.93;9.53;;;11.50;99.90;;;;;;5023973;28;20560;-44
2023/01/13 07:33:25;;;;;;;10.33;9.93;;;11.60;99.90;;;;;;5042061;28;20282;-45
2023/01/13 07:36:02;;;;;;;10.60;10.20;;;11.70;99.90;;;;;;5042616;28;20479;-48
2023/01/13 07:38:28;;;;;;;10.13;9.73;;;11.70;99.90;;;;;;5042172;28;20188;-46
2023/01/13 07:40:54;;;;;;;10.80;10.40;;;11.70;99.90;;;;;;5041920;28;20438;-45
2023/01/13 07:43:32;;;;;;;10.80;10.40;;;11.80;99.90;;;;;;5040579;28;20470;-45
2023/01/13 07:45:58;;;;;;;10.50;10.10;;;11.90;99.90;;;;;;5042292;28;20180;-47
2023/01/13 07:48:25;;;;;;;10.70;10.30;;;11.90;99.90;;;;;;5041588;28;20424;-47
2023/01/13 07:50:51;;;;;;;10.20;9.80;;;11.90;99.90;;;;;;5041903;28;20575;-49
2023/01/13 07:53:18;;;;;;;9.30;9.00;;;12.00;99.90;;;;;;5041979;28;20441;-47
2023/01/13 07:55:43;;;;;;;9.90;9.50;;;12.00;99.90;;;;;;5041775;28;20179;-49
2023/01/13 07:58:09;;;;;;;9.07;8.77;;;12.00;99.90;;;;;;5041664;28;20446;-45
2023/01/13 08:00:36;;;;;;;8.90;8.60;;;12.00;99.90;;;;;;5041532;28;20182;-47
2023/01/13 08:03:02;;;;;;;8.60;8.30;;;12.10;99.90;;;;;;5041428;28;20423;-48
2023/01/13 08:05:28;;;;;;;9.10;8.80;;;12.10;99.90;;;;;;5041720;28;20469;-50
2023/01/13 08:07:53;;;;;;;8.37;8.07;;;12.10;99.90;;;;;;5041476;28;20187;-45
2023/01/13 08:10:19;;;;;;;9.50;9.10;;;12.00;99.90;;;;;;5041472;28;20798;-45
2023/01/13 08:15:30;;;;;;;9.80;9.30;;;12.00;99.90;;;;;;5041955;28;20210;-46
2023/01/13 08:17:57;;;;;;;10.20;9.53;;;12.10;99.90;;;;;;5041812;28;20428;-47
2023/01/13 08:20:22;;;;;;;9.60;9.00;;;12.00;99.90;;;;;;5041327;28;20436;-45
2023/01/13 08:22:48;;;;;;;10.40;9.90;;;12.10;99.90;;;;;;5041132;28;20896;-50
2023/01/13 08:25:14;;;;;;;9.10;8.80;;;12.10;99.90;;;;;;5041729;28;20306;-48
2023/01/13 08:27:39;;;;;;;10.70;10.30;;;12.10;99.90;;;;;;5040945;28;20336;-52
2023/01/13 08:30:05;;;;;;;10.70;10.10;;;12.10;99.90;;;;;;5041149;28;20209;-49
2023/01/13 08:32:31;;;;;;;9.00;8.70;;;12.20;99.90;;;;;;5040852;28;20186;-47
2023/01/13 08:34:57;;;;;;;9.23;8.83;;;12.20;99.90;;;;;;5041096;28;20784;-44
2023/01/13 08:37:22;;;;;;;10.30;9.80;;;12.30;99.90;;;;;;5040982;28;20186;-50
2023/01/13 08:39:48;;;;;;;10.00;9.60;;;12.30;99.90;;;;;;5022554;28;20198;-45
2023/01/13 08:42:14;;;;;;;10.30;9.90;;;12.30;99.90;;;;;;5041539;28;20966;-47
2023/01/13 08:44:39;;;;;;;10.13;9.73;;;12.30;99.90;;;;;;5040693;28;20470;-46
2023/01/13 08:47:05;;;;;;;9.73;9.33;;;12.30;99.90;;;;;;5040870;28;21106;-48
2023/01/13 08:49:31;;;;;;;10.30;9.90;;;12.40;99.90;;;;;;5040807;28;20188;-50
2023/01/13 08:51:56;;;;;;;9.10;8.80;;;12.50;99.90;;;;;;5040370;28;20245;-45
2023/01/13 08:54:22;;;;;;;9.10;8.80;;;12.50;99.90;;;;;;5041027;28;20269;-50
2023/01/13 08:56:48;;;;;;;9.60;9.30;;;12.60;99.90;;;;;;5040804;28;20217;-45
2023/01/13 08:59:16;;;;;;;9.30;9.00;;;12.80;99.90;;;;;;5040821;28;21212;-45
2023/01/13 09:01:41;;;;;;;9.23;8.83;;;13.10;99.30;;;;;;5041152;28;20981;-46
2023/01/13 09:04:18;;;;;;;9.37;8.97;;;13.10;98.50;;;;;;5040157;28;20472;-45
2023/01/13 09:06:44;;;;;;;8.60;8.30;;;13.00;98.70;;;;;;5040882;28;20188;-43
2023/01/13 09:09:10;;;;;;;9.33;9.03;;;13.20;98.60;;;;;;5040488;28;20431;-49
2023/01/13 09:14:27;;;;;;;9.20;8.90;;;13.40;97.90;;;;;;5040337;28;20196;-48
2023/01/13 09:16:53;;;;;;;9.10;8.70;;;13.50;96.70;;;;;;5040476;28;20428;-44
2023/01/13 09:19:19;;;;;;;9.83;9.43;;;13.50;96.70;;;;;;5040637;28;20428;-46
2023/01/13 09:21:44;;;;;;;9.33;8.97;;;13.50;97.20;;;;;;5040606;28;20290;-49
2023/01/13 09:24:10;;;;;;;9.90;9.50;;;13.90;96.20;;;;;;5040654;28;20262;-52
2023/01/13 09:26:36;;;;;;;8.43;8.13;;;14.20;94.50;;;;;;5040318;28;20196;-50
2023/01/13 09:29:02;;;;;;;9.07;8.77;;;14.30;94.00;;;;;;5040008;28;20187;-46
2023/01/13 09:31:28;;;;;;;9.23;8.93;;;14.40;93.80;;;;;;5040065;28;20901;-53
2023/01/13 09:36:38;;;;;;;9.80;9.50;;;14.10;94.20;;;;;;5044396;28;20435;-50
2023/01/13 09:39:04;;;;;;;9.43;9.13;;;13.90;94.40;;;;;;5044348;28;20457;-52
2023/01/13 09:44:44;;;;;;;12.93;12.43;;;12.90;99.90;;;;;;5044254;28;20508;-46
2023/01/13 09:47:31;;;;;;;13.50;13.00;;;11.90;99.90;;;;;;5044044;28;20467;-45
2023/01/13 09:50:15;;;;;;;14.10;13.50;;;11.20;99.90;;;;;;5043928;28;20408;-44
2023/01/13 09:52:42;;;;;;;12.87;12.37;;;10.60;99.90;;;;;;5044236;28;20470;-45
2023/01/13 09:55:15;;;;;;;13.00;12.50;;;10.10;99.90;;;;;;5044328;28;20424;-45
2023/01/13 09:57:41;;;;;;;12.83;12.33;;;9.80;99.90;;;;;;5026719;28;20439;-47
2023/01/13 10:00:21;;;;;;;12.97;12.37;;;9.70;99.90;;;;;;5044083;28;20816;-45
2023/01/13 10:03:16;;;;;;;12.33;11.83;;;9.60;99.90;;;;;;5044242;28;20548;-44
2023/01/13 10:06:19;;;;;;;12.20;11.70;;;9.40;99.90;;;;;;5043402;28;20919;-44
2023/01/13 10:08:47;;;;;;;12.63;12.13;;;9.30;99.90;;;;;;5014721;28;20423;-45
2023/01/13 10:14:18;;;;;;;11.70;11.30;;;9.20;99.90;;;;;;5043873;28;20403;-47
2023/01/13 10:17:04;;;;;;;12.10;11.60;;;9.20;99.90;;;;;;5043783;28;20868;-45
2023/01/13 10:19:45;;;;;;;12.60;12.03;;;9.20;99.90;;;;;;5043618;28;20459;-47
2023/01/13 10:22:20;;;;;;;12.40;11.90;;;9.30;99.90;;;;;;5043698;28;20415;-44
2023/01/13 10:25:11;;;;;;;12.77;12.27;;;9.20;99.90;;;;;;5043698;28;20863;-46
2023/01/13 10:27:38;;;;;;;12.20;11.70;;;9.20;99.90;;;;;;5043021;28;20899;-47
2023/01/13 10:30:31;;;;;;;13.07;12.40;;;9.30;99.90;;;;;;5043541;28;20424;-50
2023/01/13 10:33:08;;;;;;;12.53;12.03;;;9.20;99.90;;;;;;5043143;28;21293;-48
2023/01/13 10:35:55;;;;;;;13.10;12.60;;;9.20;99.90;;;;;;5043330;28;20418;-45
2023/01/13 10:38:36;;;;;;;13.20;12.60;;;9.20;99.90;;;;;;5043328;28;20424;-44
2023/01/13 10:41:04;;;;;;;13.17;12.57;;;9.10;99.90;;;;;;5043272;28;20886;-44
2023/01/13 10:43:30;;;;;;;13.50;12.97;;;9.10;99.90;;;;;;5042995;28;20952;-46
2023/01/13 10:46:15;;;;;;;11.87;11.37;;;9.10;99.90;;;;;;5043165;28;20424;-47
2023/01/13 10:48:41;;;;;;;12.00;11.30;;;9.10;99.90;;;;;;5043194;28;20443;-46
2023/01/13 10:51:21;;;;;;;12.50;11.70;;;9.00;99.90;;;;;;5042908;28;20814;-46
2023/01/13 10:54:13;;;;;;;11.33;10.77;;;9.00;99.90;;;;;;5042947;28;20420;-46
2023/01/13 10:56:41;;;;;;;12.07;11.57;;;9.10;99.90;;;;;;5042752;28;20432;-48
2023/01/13 10:59:22;;;;;;;11.67;11.27;;;9.20;99.90;;;;;;5042623;28;20870;-47
2023/01/13 11:02:03;;;;;;;11.13;10.63;;;9.20;99.90;;;;;;5042733;28;20413;-46
2023/01/13 11:04:35;;;;;;;12.47;11.87;;;9.30;99.90;;;;;;5042749;28;20464;-46
2023/01/13 11:07:15;;;;;;;13.13;12.53;;;9.30;99.90;;;;;;5042426;28;20515;-48
2023/01/13 11:09:41;;;;;;;11.00;10.50;;;9.30;99.90;;;;;;5042708;28;20420;-49
2023/01/13 11:12:31;;;;;;;12.00;11.50;;;9.30;99.90;;;;;;5042667;28;20959;-44
2023/01/13 11:15:03;;;;;;;10.90;10.43;;;9.30;99.90;;;;;;5042466;28;20424;-46
2023/01/13 11:17:44;;;;;;;12.90;12.20;;;9.30;99.90;;;;;;5042235;28;20486;-48
2023/01/13 11:20:48;;;;;;;13.50;12.80;;;9.30;99.90;;;;;;5042278;28;20420;-48
2023/01/13 11:23:21;;;;;;;14.10;13.40;;;9.40;99.90;;;;;;5024913;28;20446;-47
2023/01/13 11:25:53;;;;;;;14.07;13.37;;;9.30;99.90;;;;;;5042354;28;20477;-47
2023/01/13 11:28:43;;;;;;;13.30;12.60;;;9.40;99.90;;;;;;5042411;28;20412;-47
2023/01/13 11:31:33;;;;;;;12.00;11.40;;;9.40;99.90;;;;;;5042518;28;20759;-46
2023/01/13 11:34:07;;;;;;;12.53;11.93;;;9.40;99.90;;;;;;5042098;28;20440;-48
2023/01/13 11:36:59;;;;;;;12.67;12.07;;;9.40;99.90;;;;;;5041821;28;20420;-47
2023/01/13 11:39:54;;;;;;;12.20;11.60;;;9.40;99.90;;;;;;5041764;28;20452;-50
2023/01/13 11:43:03;;;;;;;11.20;10.60;;;9.40;99.90;;;;;;5041909;28;20507;-47
2023/01/13 11:45:49;;;;;;;12.33;11.83;;;9.40;99.90;;;;;;4981005;28;20582;-49
2023/01/13 11:48:19;;;;;;;11.93;11.53;;;9.50;99.90;;;;;;5041593;28;20802;-49
2023/01/13 11:51:13;;;;;;;11.97;11.47;;;9.50;99.90;;;;;;5042185;28;20472;-47
2023/01/13 11:53:48;;;;;;;11.10;10.70;;;9.50;99.90;;;;;;5041792;28;20960;-48
2023/01/13 11:56:18;;;;;;;9.13;8.83;;;9.40;99.90;;;;;;5041365;28;20765;-49
2023/01/13 11:59:11;;;;;;;10.40;10.00;;;9.40;99.90;;;;;;5041820;28;20439;-45
2023/01/13 12:01:43;;;;;;;9.50;9.10;;;9.50;99.90;;;;;;5041436;28;20519;-47
2023/01/13 12:04:46;;;;;;;9.27;8.87;;;9.50;99.90;;;;;;5041293;28;20475;-45
2023/01/13 12:07:47;;;;;;;8.33;7.93;;;9.60;99.90;;;;;;5041388;28;20435;-49
2023/01/13 12:10:51;;;;;;;10.70;10.20;;;9.60;99.90;;;;;;5008732;28;20767;-48
2023/01/13 12:13:42;;;;;;;10.10;9.70;;;9.60;99.90;;;;;;5041360;28;20489;-49
2023/01/13 12:16:29;;;;;;;9.57;9.17;;;9.70;99.90;;;;;;5041226;28;20451;-47
2023/01/13 12:19:18;;;;;;;10.00;9.60;;;9.60;99.90;;;;;;5041468;28;20416;-47
2023/01/13 12:22:07;;;;;;;10.43;9.93;;;9.70;99.90;;;;;;5030392;28;20468;-47
2023/01/13 12:24:43;;;;;;;10.50;10.00;;;9.80;99.90;;;;;;5041023;28;20468;-47
2023/01/13 12:27:24;;;;;;;10.40;10.00;;;10.10;99.90;;;;;;5041458;28;20420;-45
2023/01/13 12:29:54;;;;;;;9.73;9.33;;;10.40;99.90;;;;;;5041001;28;20417;-51
2023/01/13 12:32:30;;;;;;;10.00;9.60;;;11.00;99.90;;;;;;5041020;28;20961;-47
2023/01/13 12:35:28;;;;;;;11.17;10.77;;;11.80;99.90;;;;;;5041205;28;20477;-52
2023/01/13 12:38:23;;;;;;;11.07;10.57;;;12.80;98.60;;;;;;5040606;28;20527;-50
2023/01/13 12:41:05;;;;;;;10.63;10.23;;;12.90;95.20;;;;;;5041412;28;20460;-50
2023/01/13 12:46:22;;;;;;;11.10;10.60;;;13.50;92.40;;;;;;5041125;28;20460;-46
2023/01/13 12:48:55;;;;;;;10.90;10.50;;;13.90;91.30;;;;;;5040661;28;20451;-47
2023/01/13 12:51:22;;;;;;;9.93;9.53;;;13.60;90.10;;;;;;5040037;28;20482;-49
2023/01/13 12:53:48;;;;;;;10.10;9.70;;;13.70;90.00;;;;;;5040515;28;20417;-51
2023/01/13 12:56:41;;;;;;;10.33;9.93;;;13.40;90.30;;;;;;5022532;28;20510;-50
2023/01/13 12:59:16;;;;;;;8.73;8.43;;;12.90;91.70;;;;;;5040314;28;20595;-48
2023/01/13 13:01:43;;;;;;;9.20;8.90;;;12.50;93.00;;;;;;5022452;28;20767;-46
2023/01/13 13:04:15;;;;;;;9.70;9.30;;;12.20;94.10;;;;;;5040258;28;20492;-47
2023/01/13 13:06:47;;;;;;;9.03;8.63;;;11.80;95.60;;;;;;5040419;28;20422;-46
2023/01/13 13:09:29;;;;;;;9.90;9.50;;;11.70;96.50;;;;;;5039852;28;20503;-44
2023/01/13 13:14:38;;;;;;;9.17;8.80;;;12.00;97.40;;;;;;5040589;28;20493;-48
2023/01/13 13:17:28;;;;;;;10.70;10.20;;;12.30;96.60;;;;;;5040171;28;20424;-51
2023/01/13 13:19:55;;;;;;;10.20;9.70;;;12.80;95.10;;;;;;5040317;28;20444;-47
2023/01/13 13:22:27;;;;;;;9.53;9.13;;;13.50;93.80;;;;;;5040293;28;20438;-48
2023/01/13 13:24:58;;;;;;;9.63;9.23;;;13.90;91.70;;;;;;5040099;28;20482;-45
2023/01/13 13:27:42;;;;;;;9.97;9.57;;;14.00;87.70;;;;;;5040121;28;20439;-46
2023/01/13 13:30:37;;;;;;;11.10;10.60;;;14.10;88.10;;;;;;5040372;28;21099;-44
2023/01/13 13:33:13;;;;;;;9.53;9.13;;;14.30;86.60;;;;;;5028666;28;20496;-45
2023/01/13 13:35:56;;;;;;;10.37;9.97;;;14.20;85.70;;;;;;5040213;28;20466;-45
2023/01/13 13:47:03;;;;;;;10.70;10.20;;;14.10;84.20;;;;;;5040271;28;20480;-49
2023/01/13 13:49:54;;;;;;;10.83;10.37;;;14.10;85.70;;;;;;5039945;28;20443;-48
2023/01/13 13:52:19;;;;;;;11.00;10.60;;;14.00;85.10;;;;;;5039941;28;20973;-46
2023/01/13 13:54:49;;;;;;;10.60;10.20;;;13.90;85.30;;;;;;5039450;28;20436;-46
2023/01/13 13:57:38;;;;;;;10.40;10.00;;;13.60;86.80;;;;;;5039889;28;20203;-46
2023/01/13 14:00:29;;;;;;;10.73;10.23;;;13.50;90.60;;;;;;5039529;28;20434;-43
2023/01/13 14:03:01;;;;;;;10.83;10.33;;;13.40;89.90;;;;;;5030565;28;20449;-48
2023/01/13 14:05:29;;;;;;;11.20;10.70;;;13.50;89.00;;;;;;5039933;28;20474;-45
2023/01/13 14:08:14;;;;;;;10.00;9.60;;;13.70;88.10;;;;;;5039690;28;20879;-47
2023/01/13 14:10:43;;;;;;;12.30;11.60;;;13.60;86.30;;;;;;5021347;28;20442;-47